Aguilar, Colorado
Current Conditions -  °F | °C
As of 5:54 PM on Saturday 20 Dec 2014 (Local Time) from KTAD Reporting Station
Clear Clear  
Wind Chill: 36°   Ceiling: Unl
Heat Index: 36°   Visibility: 10mi
Dew Point: 16°   Wind: 3mph
Humidity: 44%   Direction: 260°W
Pressure: 29.95"   Gusts: NA
Location:  37.4°N, 104.65°W
Report Text: KTAD 210054Z AUTO 26003KT 10SM CLR 02/M09 A2995 RMK AO2 SLP149 T00221089
Loading
Personal Weather Stations






























Interactive Weather Map New forecast layout! Learn more

10-Day Weather Forecast

Advertisements
Track Severe Weather on mobile